Aeroporto :
LOGIN :

Iscrizione | Disclaimer

   EN    FR    IT 

 










Sommario :    VFR   VFR Marginale   IFR   IFR Intensivo   IFR Molto Intensivo
Visibilità : 
Base nubi : 
>= 8 km
>= 3000ft
5 / 8 km
1000 / 3000 ft
1500m / 5 km
500 / 1000 ft
800 / 1500m
200 / 500 ft
< 800m
< 200 ft
Simboli :   Temporali  Nebbia  Neve Forte  Precipitazioni Forti  Vento > 20 kt
SIGMETs :   Varie  Temporali  Ghiacco  Turbolenza  Onda orograficha  Ceneri Vulcaniche






- Altitudine del aeroporto : 148 ft
- Codice IATA : ALL


LIMG - Villanova D'Albenga International

ULTIMO METAR :
  • 071350Z 28007KT 260V320 9999 1000N SCT070CB 31/15 Q1012

METARs OBSOLETI :
  • 071250Z 09008KT 060V120 9999 1000NW SCT070 34/14 Q1012
  • 071150Z 08010KT 040V110 9999 1000N FEW050 34/13 Q1012

TAF TAF LIMG
Valido dal 07 a 12 ore il 08 a 12 ore UTC


071100Z 0712/0812 02012KT 9999 SCT040
TEMPO 0712/0721 4000 TSRA
BECMG 0719/0721 VRB05KT



MetMap, La meteo Aeronautica in un colpo d'occhio ! - Copyright ORBIFLY Dicembre 2007 - Disclaimer

ORBIFLY MET'MAP TEAM :

Programmazione e sviluppo : Alexandra Zaïnal
Concezione : Baudouin d'Aumeries
Supporto tecnico e logistico : Manuel Goepfert
Aiuto : Marc-Olivier Méhu
Aiuto per la traduzione : Arnaldo La Scala




FONTI E CREDITI :

   NOAA